Terminal Aerodrome Forecast
Issued by NWS

Home | Current Version | Previous Version | Text Only | Print | Product List | Glossary On
Versions: 1 2 3 4 5 6 7 8 9 10 11 12 13 14 15 16 17 18 19 20 21 22 23
523
FTUS43 KDVN 222154 AAC
TAFBRL
TAF AMD
KBRL 222154Z 2222/2318 09006KT 1SM BR OVC003
     FM230300 10009KT 1SM -RA BR OVC002
     FM231000 23008KT 3SM BR OVC006
     FM231300 28008KT P6SM OVC010=

USA.gov is the U.S. government's official web portal to all federal, state and local government web resources and services.